Time;durP1;ratioP1;P1;durP2;ratioP2;P2;SDS_P1;SDS_P2;PMS_P1;PMS_P2;Temp;Humidity;BMP_temperature;BMP_pressure;BME280_temperature;BME280_humidity;BME280_pressure;Samples;Min_cycle;Max_cycle;Signal;HPM_P1;HPM_P2
2022/10/19 00:01:10;;;;;;;;;15.00;14.75;;;;;19.23;56.04;99191.59;4984818;28;104073;-43
2022/10/19 00:03:37;;;;;;;;;13.00;13.00;;;;;19.24;55.92;99197.91;4963539;28;103210;-43
2022/10/19 00:06:27;;;;;;;;;13.67;13.00;;;;;19.23;55.82;99191.59;4969214;28;102383;-43
2022/10/19 00:08:58;;;;;;;;;16.33;14.33;;;;;19.23;55.82;99188.03;4976098;28;104024;-43
2022/10/19 00:11:25;;;;;;;;;14.33;13.67;;;;;19.22;55.77;99198.16;4972882;28;104328;-43
2022/10/19 00:13:53;;;;;;;;;16.00;14.00;;;;;19.22;56.01;99195.44;4960853;28;102361;-43
2022/10/19 00:16:20;;;;;;;;;14.33;13.67;;;;;19.20;55.85;99191.25;4976461;28;102623;-43
2022/10/19 00:18:47;;;;;;;;;13.00;12.33;;;;;19.22;56.05;99198.16;4974613;28;102319;-42
2022/10/19 00:21:15;;;;;;;;;15.00;14.67;;;;;19.21;55.92;99190.19;4971736;28;103936;-43
2022/10/19 00:23:43;;;;;;;;;11.33;11.33;;;;;19.21;56.02;99193.75;4974282;27;102497;-42
2022/10/19 00:26:10;;;;;;;;;15.33;14.33;;;;;19.21;55.83;99195.66;4951229;28;102511;-43
2022/10/19 00:28:37;;;;;;;;;12.00;11.67;;;;;19.20;55.87;99185.75;4999772;27;102754;-42
2022/10/19 00:31:05;;;;;;;;;13.00;13.00;;;;;19.20;56.06;99180.28;4982540;28;105498;-43
2022/10/19 00:33:33;;;;;;;;;13.00;12.00;;;;;19.19;56.04;99179.44;4970421;28;102407;-43
2022/10/19 00:36:00;;;;;;;;;13.00;12.00;;;;;19.21;55.90;99184.69;4973090;28;102518;-42
2022/10/19 00:38:26;;;;;;;;;13.00;12.00;;;;;19.19;56.19;99190.41;4977827;28;102566;-43
2022/10/19 00:40:53;;;;;;;;;12.00;12.00;;;;;19.19;55.88;99187.66;4970970;28;103453;-43
2022/10/19 00:43:26;;;;;;;;;13.00;10.00;;;;;19.19;56.03;99182.19;4997700;28;102335;-42
2022/10/19 00:45:53;;;;;;;;;11.67;11.33;;;;;19.18;55.93;99188.78;4974696;28;102751;-43
2022/10/19 00:48:30;;;;;;;;;13.33;13.00;;;;;19.16;56.08;99180.78;4980076;28;102345;-43
2022/10/19 00:50:57;;;;;;;;;14.00;13.00;;;;;19.16;55.88;99179.94;4967798;28;106944;-42
2022/10/19 00:53:26;;;;;;;;;11.00;11.00;;;;;19.16;55.96;99183.50;4969597;28;103633;-42
2022/10/19 00:55:53;;;;;;;;;11.33;11.33;;;;;19.15;56.13;99181.84;4978548;28;102210;-42
2022/10/19 00:58:20;;;;;;;;;12.00;12.00;;;;;19.17;55.95;99178.88;4988151;28;103433;-43
2022/10/19 01:00:47;;;;;;;;;14.67;13.00;;;;;19.16;55.98;99179.94;4971723;28;104450;-42
2022/10/19 01:03:14;;;;;;;;;11.33;11.33;;;;;19.15;56.04;99181.00;4971581;28;102388;-42
2022/10/19 01:05:41;;;;;;;;;11.33;11.00;;;;;19.16;55.87;99174.47;4972679;28;102246;-42
2022/10/19 01:08:21;;;;;;;;;13.33;12.33;;;;;19.16;55.97;99172.53;4972859;27;102532;-42
2022/10/19 01:11:23;;;;;;;;;11.67;11.33;;;;;19.15;55.98;99161.81;4980280;28;104093;-42
2022/10/19 01:14:28;;;;;;;;;13.00;12.67;;;;;19.12;55.92;99151.34;4965840;27;102576;-42
2022/10/19 01:17:24;;;;;;;;;10.00;10.00;;;;;19.15;55.36;99145.38;4967300;28;102440;-42
2022/10/19 01:20:51;;;;;;;;;11.33;11.00;;;;;19.14;55.95;99146.44;4974506;28;102187;-42
2022/10/19 01:24:02;;;;;;;;;12.00;11.33;;;;;19.14;55.79;99151.91;4983959;28;107837;-42
2022/10/19 01:26:54;;;;;;;;;13.00;11.00;;;;;19.13;55.88;99150.28;4968751;28;102472;-42
2022/10/19 01:29:43;;;;;;;;;12.00;12.00;;;;;19.11;55.96;99138.72;4965831;28;102722;-42
2022/10/19 01:32:38;;;;;;;;;13.67;13.00;;;;;19.10;55.88;99153.47;4991287;28;102484;-42
2022/10/19 01:35:10;;;;;;;;;12.00;11.67;;;;;19.11;55.96;99138.72;4974633;28;108802;-42
2022/10/19 01:37:40;;;;;;;;;13.67;12.00;;;;;19.11;56.07;99149.66;4973150;28;103012;-42
2022/10/19 01:40:14;;;;;;;;;11.33;11.33;;;;;19.11;56.17;99141.44;4974915;27;102538;-42
2022/10/19 01:43:03;;;;;;;;;11.00;11.00;;;;;19.11;56.17;99133.22;4955741;28;104001;-42
2022/10/19 01:45:48;;;;;;;;;12.00;12.00;;;;;19.11;55.97;99133.22;4986052;28;108952;-42
2022/10/19 01:48:29;;;;;;;;;10.00;10.00;;;;;19.11;55.90;99131.31;4969680;28;102602;-42
2022/10/19 01:51:03;;;;;;;;;10.67;10.67;;;;;19.11;55.80;99134.06;4984757;28;102263;-42
2022/10/19 01:53:39;;;;;;;;;13.33;11.00;;;;;19.11;55.97;99135.97;4964459;28;104087;-42
2022/10/19 01:56:06;;;;;;;;;8.67;8.67;;;;;19.11;56.19;99133.22;4969052;27;108911;-42
2022/10/19 01:58:34;;;;;;;;;12.00;11.33;;;;;19.11;56.01;99133.22;4963002;28;105130;-42
2022/10/19 02:01:04;;;;;;;;;12.67;11.33;;;;;19.09;55.99;99138.94;4955156;28;103375;-42
2022/10/19 02:03:31;;;;;;;;;10.67;10.00;;;;;19.10;56.00;99137.03;4989991;27;103773;-42
2022/10/19 02:05:58;;;;;;;;;13.00;10.33;;;;;19.09;56.05;99138.13;4973262;28;108970;-42
2022/10/19 02:08:30;;;;;;;;;9.67;9.00;;;;;19.07;56.01;99132.03;4979226;27;102618;-42
2022/10/19 02:10:57;;;;;;;;;12.00;9.00;;;;;19.09;56.13;99129.91;4958316;28;102521;-42
2022/10/19 02:13:24;;;;;;;;;10.33;10.00;;;;;19.09;55.99;99140.88;4967572;28;103004;-42
2022/10/19 02:15:52;;;;;;;;;10.00;10.00;;;;;19.08;55.86;99134.56;4985921;27;104085;-42
2022/10/19 02:18:25;;;;;;;;;11.00;11.00;;;;;19.08;56.30;99139.19;4979482;28;102558;-42
2022/10/19 02:20:53;;;;;;;;;10.00;9.67;;;;;19.08;56.09;99128.25;4984695;28;102348;-42
2022/10/19 02:23:21;;;;;;;;;10.00;10.00;;;;;19.09;56.01;99127.16;4973364;28;102262;-42
2022/10/19 02:25:48;;;;;;;;;11.00;10.67;;;;;19.09;55.76;99129.91;4960393;28;104348;-42
2022/10/19 02:28:15;;;;;;;;;9.67;9.67;;;;;19.09;55.83;99127.16;4971815;28;102488;-42
2022/10/19 02:30:42;;;;;;;;;9.33;8.67;;;;;19.08;56.06;99112.63;4966231;28;102665;-42
2022/10/19 02:33:11;;;;;;;;;10.33;9.33;;;;;19.07;56.00;99116.44;4968452;28;102673;-42
2022/10/19 02:35:38;;;;;;;;;11.00;10.00;;;;;19.07;55.71;99108.22;4971790;27;104134;-42
2022/10/19 02:38:05;;;;;;;;;11.00;9.00;;;;;19.08;55.96;99120.00;4971275;28;102537;-42
2022/10/19 02:40:34;;;;;;;;;11.00;10.00;;;;;19.07;56.14;99113.69;4974222;28;102547;-42
2022/10/19 02:43:04;;;;;;;;;11.33;10.67;;;;;19.08;56.05;99112.63;4970950;28;102353;-42
2022/10/19 02:45:32;;;;;;;;;10.33;10.00;;;;;19.08;56.22;99106.31;4947008;28;109797;-42
2022/10/19 02:48:07;;;;;;;;;11.00;11.00;;;;;19.05;56.06;99110.34;4947055;28;103374;-41
2022/10/19 02:50:34;;;;;;;;;8.00;8.00;;;;;19.05;55.96;99112.25;4974772;28;102551;-43
2022/10/19 02:53:01;;;;;;;;;12.00;11.00;;;;;19.05;56.04;99120.47;4961253;28;102769;-42
2022/10/19 02:55:29;;;;;;;;;9.33;9.33;;;;;19.06;55.75;99119.41;4965800;28;109040;-42
2022/10/19 02:57:56;;;;;;;;;11.00;10.00;;;;;19.05;55.90;99112.25;4974722;28;103880;-42
2022/10/19 03:00:23;;;;;;;;;9.00;9.00;;;;;19.05;56.13;99123.22;4972931;28;102437;-42
2022/10/19 03:02:50;;;;;;;;;10.33;9.67;;;;;19.04;56.11;99121.56;4960766;28;102897;-42
2022/10/19 03:05:17;;;;;;;;;10.00;9.00;;;;;19.04;55.95;99121.56;4968323;28;104106;-42
2022/10/19 03:07:44;;;;;;;;;11.00;9.67;;;;;19.05;55.91;99117.75;4968494;28;102823;-42
2022/10/19 03:10:11;;;;;;;;;10.00;9.00;;;;;19.05;55.94;99125.97;4973916;27;102285;-42
2022/10/19 03:12:38;;;;;;;;;9.33;9.00;;;;;19.03;55.90;99120.75;4960966;28;102499;-42
2022/10/19 03:15:06;;;;;;;;;10.00;9.67;;;;;19.04;56.06;99122.41;4965685;28;104331;-42
2022/10/19 03:17:34;;;;;;;;;9.00;8.67;;;;;19.05;55.91;99128.69;4961506;28;105219;-42
2022/10/19 03:20:02;;;;;;;;;10.00;9.00;;;;;19.04;56.38;99124.31;4972018;28;102478;-42
2022/10/19 03:22:29;;;;;;;;;9.00;9.00;;;;;19.03;55.91;99120.75;4967247;28;103270;-42
2022/10/19 03:24:56;;;;;;;;;10.00;10.00;;;;;19.04;55.96;99116.09;4957674;28;104061;-42
2022/10/19 03:27:23;;;;;;;;;10.67;9.67;;;;;19.04;56.20;99121.56;4973405;28;102642;-42
2022/10/19 03:29:50;;;;;;;;;9.33;8.00;;;;;19.03;56.16;99118.00;4963615;28;102638;-44
2022/10/19 03:32:17;;;;;;;;;9.00;8.33;;;;;19.03;55.97;99119.91;4973411;28;102226;-42
2022/10/19 03:34:44;;;;;;;;;9.33;9.00;;;;;19.02;55.95;99115.50;4980999;28;103774;-42
2022/10/19 03:37:12;;;;;;;;;7.67;7.00;;;;;19.01;55.94;99116.56;4973791;28;102269;-42
2022/10/19 03:39:39;;;;;;;;;11.00;10.00;;;;;19.01;56.12;99113.81;4967963;28;102256;-42
2022/10/19 03:42:06;;;;;;;;;10.67;9.00;;;;;19.01;56.00;99113.81;4967353;28;102111;-42
2022/10/19 03:44:33;;;;;;;;;9.33;9.33;;;;;19.02;56.35;99112.75;4963678;28;103577;-42
2022/10/19 03:47:00;;;;;;;;;8.00;7.67;;;;;19.02;56.01;99113.59;4975568;28;102134;-42
2022/10/19 03:49:27;;;;;;;;;9.33;9.00;;;;;19.01;56.07;99111.91;4973057;28;102169;-42
2022/10/19 03:51:54;;;;;;;;;9.00;9.00;;;;;19.02;55.86;99112.75;4973645;28;104717;-44
2022/10/19 03:54:21;;;;;;;;;9.00;9.00;;;;;19.01;55.73;99111.06;4976111;28;104357;-44
2022/10/19 03:56:52;;;;;;;;;9.00;8.33;;;;;19.01;56.10;99106.44;4966579;28;102947;-42
2022/10/19 03:59:20;;;;;;;;;9.00;8.00;;;;;19.01;56.17;99105.59;4978334;28;102455;-42
2022/10/19 04:01:47;;;;;;;;;11.00;9.50;;;;;19.00;55.94;99102.03;4980343;27;102585;-42
2022/10/19 04:04:15;;;;;;;;;9.00;7.33;;;;;19.00;56.09;99106.69;4982177;28;104011;-42
2022/10/19 04:06:45;;;;;;;;;8.67;8.00;;;;;18.99;56.05;99113.25;4966803;28;102541;-42
2022/10/19 04:09:13;;;;;;;;;10.00;8.67;;;;;18.99;56.07;99105.88;4977982;28;102127;-42
2022/10/19 04:11:40;;;;;;;;;9.67;9.00;;;;;18.97;56.02;99108.00;4981869;28;102434;-42
2022/10/19 04:14:09;;;;;;;;;9.00;8.33;;;;;18.98;56.11;99122.53;4975594;28;104118;-42
2022/10/19 04:16:36;;;;;;;;;7.67;7.67;;;;;18.97;56.30;99120.88;4986242;28;102691;-42
2022/10/19 04:19:03;;;;;;;;;8.67;8.00;;;;;18.96;56.06;99117.28;4973441;28;102141;-42
2022/10/19 04:21:34;;;;;;;;;8.33;7.67;;;;;18.97;56.12;99116.22;4976361;27;102559;-44
2022/10/19 04:24:06;;;;;;;;;8.67;8.00;;;;;18.97;55.94;99104.41;4978530;28;108877;-44
2022/10/19 04:26:33;;;;;;;;;9.00;9.00;;;;;18.97;56.13;99104.41;4973750;28;102364;-44
2022/10/19 04:29:00;;;;;;;;;7.67;7.00;;;;;18.97;55.97;99112.66;4971759;28;102434;-44
2022/10/19 04:31:27;;;;;;;;;8.00;8.00;;;;;18.98;56.03;99111.56;4958762;28;102400;-44
2022/10/19 04:33:55;;;;;;;;;8.33;8.33;;;;;18.98;56.14;99119.81;4964009;28;104048;-44
2022/10/19 04:36:22;;;;;;;;;10.00;9.00;;;;;18.97;55.92;99115.38;4968180;28;102486;-44
2022/10/19 04:38:49;;;;;;;;;7.33;7.33;;;;;18.97;56.02;99112.66;4966666;28;102194;-44
2022/10/19 04:41:17;;;;;;;;;7.00;7.00;;;;;18.97;55.88;99110.75;4975827;27;102507;-44
2022/10/19 04:43:44;;;;;;;;;8.67;8.67;;;;;18.97;56.23;99118.13;4965750;28;103236;-44
2022/10/19 04:46:15;;;;;;;;;8.00;7.00;;;;;18.95;56.24;99107.44;4962758;28;102403;-44
2022/10/19 04:48:43;;;;;;;;;9.00;8.33;;;;;18.95;56.21;99112.91;4981512;27;103317;-42
2022/10/19 04:51:10;;;;;;;;;10.00;9.00;;;;;18.95;56.07;99106.59;4965269;28;102737;-42
2022/10/19 04:53:38;;;;;;;;;8.33;8.00;;;;;18.95;56.19;99103.84;4977154;28;103783;-42
2022/10/19 04:56:07;;;;;;;;;7.00;7.00;;;;;18.93;55.83;99111.47;4991507;28;101998;-42
2022/10/19 04:58:34;;;;;;;;;9.67;7.33;;;;;18.92;56.16;99118.00;4971260;27;102422;-42
2022/10/19 05:01:14;;;;;;;;;7.00;7.00;;;;;18.93;56.13;99106.00;4972655;28;102415;-42
2022/10/19 05:03:41;;;;;;;;;6.00;6.00;;;;;18.92;56.04;99113.38;4977144;28;112255;-42
2022/10/19 05:06:09;;;;;;;;;8.00;7.33;;;;;18.93;56.03;99114.22;4979717;28;103023;-42
2022/10/19 05:08:36;;;;;;;;;9.00;8.33;;;;;18.90;55.97;99104.56;4984387;28;102324;-42
2022/10/19 05:11:08;;;;;;;;;7.67;7.00;;;;;18.93;56.19;99103.25;4990272;28;102562;-42
2022/10/19 05:13:35;;;;;;;;;9.00;8.00;;;;;18.91;56.07;99100.75;4984379;28;109944;-42
2022/10/19 05:16:03;;;;;;;;;6.00;6.00;;;;;18.92;56.14;99098.84;4985575;28;102495;-42
2022/10/19 05:18:30;;;;;;;;;8.00;7.00;;;;;18.92;55.96;99093.34;4981687;28;102439;-42
2022/10/19 05:21:10;;;;;;;;;7.00;7.00;;;;;18.92;55.90;99102.41;4990909;28;105334;-42
2022/10/19 05:23:38;;;;;;;;;9.00;8.00;;;;;18.92;56.28;99096.09;4983394;28;108842;-43
2022/10/19 05:26:05;;;;;;;;;5.00;5.00;;;;;18.91;56.03;99088.97;4980760;28;102396;-44
2022/10/19 05:28:32;;;;;;;;;5.67;5.33;;;;;18.90;56.11;99090.03;4987689;27;102431;-44
2022/10/19 05:31:15;;;;;;;;;11.00;9.00;;;;;18.89;55.93;99091.09;4984225;28;102179;-44
2022/10/19 05:33:42;;;;;;;;;8.00;8.00;;;;;18.89;56.34;99091.09;4976028;28;110928;-44
2022/10/19 05:36:17;;;;;;;;;9.00;8.00;;;;;18.89;56.06;99085.63;4969760;28;102518;-44
2022/10/19 05:38:44;;;;;;;;;9.67;8.00;;;;;18.88;56.05;99083.94;4985149;28;102339;-45
2022/10/19 05:41:12;;;;;;;;;7.33;6.67;;;;;18.88;56.18;99089.44;4980017;27;102158;-44
2022/10/19 05:43:39;;;;;;;;;8.00;8.00;;;;;18.89;56.26;99093.84;4978337;28;104091;-42
2022/10/19 05:46:08;;;;;;;;;8.33;7.00;;;;;18.86;55.89;99092.44;4981668;28;101979;-42
2022/10/19 05:48:35;;;;;;;;;7.00;6.00;;;;;18.86;56.16;99094.34;4987248;28;102103;-42
2022/10/19 05:51:04;;;;;;;;;7.00;6.67;;;;;18.86;56.13;99106.13;4984209;28;102147;-42
2022/10/19 05:53:31;;;;;;;;;6.00;6.00;;;;;18.87;56.15;99112.44;4988432;28;104077;-42
2022/10/19 05:55:58;;;;;;;;;7.67;7.00;;;;;18.88;56.02;99105.88;4981319;28;102214;-42
2022/10/19 05:58:25;;;;;;;;;6.67;6.00;;;;;18.87;55.88;99104.22;4987271;27;102247;-42
2022/10/19 06:00:53;;;;;;;;;7.67;7.00;;;;;18.88;56.04;99114.09;4985567;27;102361;-42
2022/10/19 06:03:21;;;;;;;;;6.67;6.00;;;;;18.88;56.31;99119.56;4972249;28;104212;-42
2022/10/19 06:05:48;;;;;;;;;8.00;8.00;;;;;18.87;56.07;99120.66;4977443;28;102313;-42
2022/10/19 06:08:16;;;;;;;;;8.00;7.00;;;;;18.86;56.16;99119.00;4979802;28;102182;-42
2022/10/19 06:10:43;;;;;;;;;6.67;6.67;;;;;18.86;56.14;99110.78;4968814;28;102426;-42
2022/10/19 06:13:10;;;;;;;;;8.00;8.00;;;;;18.86;55.74;99124.47;4991014;28;104052;-42
2022/10/19 06:15:39;;;;;;;;;8.00;6.00;;;;;18.85;56.00;99123.66;4973202;28;102004;-42
2022/10/19 06:18:06;;;;;;;;;6.00;6.00;;;;;18.85;56.12;99122.81;4990909;28;102706;-42
2022/10/19 06:20:39;;;;;;;;;8.00;6.00;;;;;18.85;55.66;99123.66;4977556;28;102663;-42
2022/10/19 06:23:07;;;;;;;;;7.67;6.00;;;;;18.84;55.98;99121.97;4989944;28;109048;-42
2022/10/19 06:25:34;;;;;;;;;7.33;7.33;;;;;18.84;55.93;99121.13;4992231;28;102338;-42
2022/10/19 06:28:01;;;;;;;;;7.00;7.00;;;;;18.84;56.27;99126.63;4982274;28;103276;-42
2022/10/19 06:30:28;;;;;;;;;7.00;7.00;;;;;18.84;56.11;99132.09;4989615;28;102591;-42
2022/10/19 06:32:57;;;;;;;;;6.67;6.67;;;;;18.84;56.00;99124.72;4989611;28;104278;-44
2022/10/19 06:35:24;;;;;;;;;7.00;7.00;;;;;18.85;55.80;99120.06;4979630;28;103132;-44
2022/10/19 06:37:51;;;;;;;;;8.33;7.00;;;;;18.86;56.24;99135.44;4995165;28;102475;-42
2022/10/19 06:40:18;;;;;;;;;8.00;8.00;;;;;18.86;55.90;99138.19;4986851;28;102201;-42
2022/10/19 06:42:45;;;;;;;;;6.00;6.00;;;;;18.87;55.89;99132.44;4964351;28;104024;-42
2022/10/19 06:45:12;;;;;;;;;7.00;7.00;;;;;18.87;55.97;99134.34;4983046;28;102415;-42
2022/10/19 06:47:39;;;;;;;;;7.00;7.00;;;;;18.87;55.90;99131.59;4974260;28;102391;-42
2022/10/19 06:50:06;;;;;;;;;7.00;7.00;;;;;18.87;55.91;99135.19;4991078;28;102337;-42
2022/10/19 06:52:34;;;;;;;;;7.00;6.00;;;;;18.86;55.92;99132.69;4981623;28;108787;-42
2022/10/19 06:55:01;;;;;;;;;7.00;7.00;;;;;18.87;56.27;99137.91;4988838;28;102171;-42
2022/10/19 06:57:28;;;;;;;;;4.00;4.00;;;;;18.86;56.06;99144.50;4990716;27;102327;-42
2022/10/19 06:59:55;;;;;;;;;6.67;6.67;;;;;18.86;56.19;99155.47;4981532;28;102387;-42
2022/10/19 07:02:22;;;;;;;;;6.00;6.00;;;;;18.86;55.95;99160.94;4980262;28;105075;-42
2022/10/19 07:04:49;;;;;;;;;6.33;5.67;;;;;18.86;55.64;99163.69;4967773;28;102337;-42
2022/10/19 07:07:16;;;;;;;;;8.00;7.00;;;;;18.85;56.09;99162.00;4978274;28;102263;-42
2022/10/19 07:09:43;;;;;;;;;6.00;6.00;;;;;18.85;55.94;99164.75;4991110;28;102458;-42
2022/10/19 07:12:10;;;;;;;;;8.00;7.00;;;;;18.86;55.97;99168.31;4985220;27;103988;-42
2022/10/19 07:14:38;;;;;;;;;7.00;7.00;;;;;18.87;55.99;99164.50;4976520;28;105346;-42
2022/10/19 07:17:06;;;;;;;;;8.00;7.00;;;;;18.86;55.70;99160.09;4989724;28;102094;-41
2022/10/19 07:19:33;;;;;;;;;7.33;6.67;;;;;18.88;55.58;99160.69;4993991;28;102419;-42
2022/10/19 07:22:00;;;;;;;;;7.00;7.00;;;;;18.86;55.95;99168.31;4986896;28;104009;-42
2022/10/19 07:24:27;;;;;;;;;6.00;6.00;;;;;18.87;55.85;99170.81;4993097;28;102311;-42
2022/10/19 07:26:54;;;;;;;;;7.00;7.00;;;;;18.88;56.02;99166.16;4993795;27;102540;-44
2022/10/19 07:29:21;;;;;;;;;6.33;6.33;;;;;18.88;55.99;99171.63;4995043;28;102514;-44
2022/10/19 07:31:48;;;;;;;;;7.00;7.00;;;;;18.88;56.17;99172.47;4989825;27;104107;-44
2022/10/19 07:34:15;;;;;;;;;7.67;7.67;;;;;18.89;55.90;99168.69;4978396;28;102283;-44
2022/10/19 07:36:46;;;;;;;;;7.33;7.33;;;;;18.89;55.88;99174.16;4970921;28;102263;-44
2022/10/19 07:39:15;;;;;;;;;7.00;6.33;;;;;18.90;55.85;99175.00;4982271;28;102170;-42
2022/10/19 07:41:43;;;;;;;;;6.33;6.33;;;;;18.89;55.80;99173.31;4981953;28;104188;-42
2022/10/19 07:44:11;;;;;;;;;7.00;7.00;;;;;18.89;56.08;99173.31;4985401;28;102308;-42
2022/10/19 07:46:41;;;;;;;;;4.00;4.00;;;;;18.89;56.02;99170.56;4985566;28;102248;-42
2022/10/19 07:49:12;;;;;;;;;6.00;6.00;;;;;18.90;55.88;99166.78;4984337;28;103687;-43
2022/10/19 07:51:39;;;;;;;;;4.00;4.00;;;;;18.89;55.88;99168.69;4981468;28;104241;-42
2022/10/19 07:54:06;;;;;;;;;5.67;5.67;;;;;18.90;55.74;99169.50;4973268;28;102372;-42
2022/10/19 07:56:33;;;;;;;;;7.67;7.00;;;;;18.90;55.82;99164.88;4983834;28;106117;-42
2022/10/19 07:59:00;;;;;;;;;6.00;6.00;;;;;18.91;55.89;99165.69;4985997;28;102538;-42
2022/10/19 08:01:29;;;;;;;;;5.67;5.67;;;;;18.92;55.68;99164.59;5002062;28;104063;-44
2022/10/19 08:03:57;;;;;;;;;7.00;6.00;;;;;18.93;55.71;99171.75;4982128;28;102403;-44
2022/10/19 08:06:44;;;;;;;;;6.00;6.00;;;;;18.93;55.82;99161.63;4985150;28;102671;-42
2022/10/19 08:09:11;;;;;;;;;6.67;6.67;;;;;18.93;55.80;99163.53;4983542;28;102519;-42
2022/10/19 08:11:58;;;;;;;;;6.00;6.00;;;;;18.93;55.71;99174.50;4984108;28;105387;-42
2022/10/19 08:14:25;;;;;;;;;6.67;6.67;;;;;18.93;55.83;99166.28;4987748;28;102365;-42
2022/10/19 08:16:52;;;;;;;;;6.33;6.00;;;;;18.92;55.68;99176.41;4984307;28;102089;-42
2022/10/19 08:19:21;;;;;;;;;7.00;6.00;;;;;18.90;55.98;99175.00;4992210;27;102585;-44
2022/10/19 08:21:48;;;;;;;;;6.67;6.67;;;;;18.91;55.73;99169.25;4978283;28;104023;-44
2022/10/19 08:24:16;;;;;;;;;6.67;6.00;;;;;18.92;55.82;99172.81;4996230;27;102084;-44
2022/10/19 08:26:43;;;;;;;;;7.00;7.00;;;;;18.91;55.94;99165.69;4980016;28;102444;-42
2022/10/19 08:29:17;;;;;;;;;5.00;5.00;;;;;18.90;55.84;99170.34;4983932;27;103808;-44
2022/10/19 08:31:45;;;;;;;;;7.00;5.33;;;;;18.91;55.93;99158.28;4978847;28;103441;-44
2022/10/19 08:34:12;;;;;;;;;6.00;6.00;;;;;18.92;55.76;99178.31;4984754;28;102294;-42
2022/10/19 08:36:39;;;;;;;;;7.00;7.00;;;;;18.91;55.69;99165.69;4976953;28;102616;-42
2022/10/19 08:39:08;;;;;;;;;7.00;5.33;;;;;18.91;55.83;99171.19;4983661;28;103161;-42
2022/10/19 08:41:44;;;;;;;;;6.67;6.00;;;;;18.92;55.85;99173.66;4985412;28;108363;-42
2022/10/19 08:44:20;;;;;;;;;5.00;5.00;;;;;18.92;55.77;99164.59;4989069;28;102176;-42
2022/10/19 08:47:16;;;;;;;;;8.00;7.00;;;;;18.93;55.69;99172.59;4985361;28;102479;-42
2022/10/19 08:49:48;;;;;;;;;7.00;6.00;;;;;18.93;55.79;99177.25;4983379;28;102384;-43
2022/10/19 08:52:23;;;;;;;;;6.00;6.00;;;;;18.93;55.79;99177.25;4977398;28;104010;-43
2022/10/19 08:54:50;;;;;;;;;6.67;6.00;;;;;18.92;55.75;99168.19;4980835;28;102540;-43
2022/10/19 08:57:36;;;;;;;;;6.00;6.00;;;;;18.93;55.97;99174.50;4987128;27;102464;-43
2022/10/19 09:00:29;;;;;;;;;6.00;6.00;;;;;18.91;55.89;99166.50;4983786;28;103101;-43
2022/10/19 09:03:02;;;;;;;;;5.33;5.33;;;;;18.92;55.83;99170.09;4947652;28;109016;-43
2022/10/19 09:05:45;;;;;;;;;7.00;6.33;;;;;18.91;55.87;99166.50;4992119;28;102347;-43
2022/10/19 09:08:12;;;;;;;;;6.33;6.00;;;;;18.92;55.80;99167.34;4976110;28;102326;-44
2022/10/19 09:10:45;;;;;;;;;7.00;6.00;;;;;18.92;56.02;99159.13;4978973;28;102742;-43
2022/10/19 09:13:34;;;;;;;;;6.00;5.67;;;;;18.92;55.81;99170.09;4969130;28;104100;-43
2022/10/19 09:16:21;;;;;;;;;6.00;6.00;;;;;18.92;55.72;99178.31;4969801;28;102571;-43
2022/10/19 09:18:49;;;;;;;;;5.33;5.00;;;;;18.91;55.85;99177.47;4963617;28;102508;-43
2022/10/19 09:21:28;;;;;;;;;4.67;4.33;;;;;18.91;55.77;99180.22;4979032;28;102447;-43
2022/10/19 09:24:50;;;;;;;;;6.00;6.00;;;;;18.91;55.72;99177.47;4965950;28;109070;-43
2022/10/19 09:27:22;;;;;;;;;7.00;7.00;;;;;18.91;55.44;99179.41;4931870;28;102715;-43
2022/10/19 09:29:53;;;;;;;;;4.33;4.33;;;;;18.91;55.67;99190.38;4925890;28;102119;-43
2022/10/19 09:32:25;;;;;;;;;4.33;4.33;;;;;18.92;55.64;99189.28;4949221;28;102601;-43
2022/10/19 09:34:54;;;;;;;;;6.33;6.00;;;;;18.91;55.76;99182.94;4958382;28;103747;-42
2022/10/19 09:37:21;;;;;;;;;6.00;6.00;;;;;18.91;55.67;99187.63;4968494;28;111116;-43
2022/10/19 09:39:53;;;;;;;;;5.00;4.00;;;;;18.92;55.74;99194.75;4970575;28;102097;-43
2022/10/19 09:42:31;;;;;;;;;7.33;6.00;;;;;18.92;55.71;99195.59;4977668;28;111518;-43
2022/10/19 09:45:01;;;;;;;;;6.00;6.00;;;;;18.93;55.74;99200.00;4975796;28;104197;-43
2022/10/19 09:47:37;;;;;;;;;7.00;6.00;;;;;18.93;55.55;99200.00;4983185;28;102387;-43
2022/10/19 09:50:19;;;;;;;;;6.00;5.67;;;;;18.93;55.58;99199.16;4975176;28;102432;-43
2022/10/19 09:52:55;;;;;;;;;6.67;6.33;;;;;18.94;55.82;99192.63;4988612;27;103493;-43
2022/10/19 09:55:29;;;;;;;;;6.00;6.00;;;;;18.94;55.73;99198.09;4962915;28;104051;-43
2022/10/19 09:58:04;;;;;;;;;6.00;6.00;;;;;18.94;55.52;99198.94;4985224;28;102298;-43
2022/10/19 10:00:34;;;;;;;;;6.00;6.00;;;;;18.94;55.54;99190.72;4993293;27;102197;-43
2022/10/19 10:03:01;;;;;;;;;4.67;4.67;;;;;18.93;55.60;99194.53;4984845;28;102558;-43
2022/10/19 10:05:35;;;;;;;;;5.67;5.00;;;;;18.94;55.38;99189.88;4988093;28;104137;-43
2022/10/19 10:08:04;;;;;;;;;5.00;5.00;;;;;18.93;55.54;99190.94;4975478;28;102469;-43
2022/10/19 10:10:56;;;;;;;;;7.00;6.33;;;;;18.92;55.73;99192.84;4986571;28;102491;-43
2022/10/19 10:13:23;;;;;;;;;5.00;5.00;;;;;18.92;55.78;99194.75;4978761;28;102620;-43
2022/10/19 10:15:55;;;;;;;;;8.00;6.67;;;;;18.91;55.71;99190.38;4979729;28;104095;-43
2022/10/19 10:18:22;;;;;;;;;5.00;5.00;;;;;18.93;55.58;99190.94;4982944;28;102858;-43
2022/10/19 10:21:05;;;;;;;;;5.00;5.00;;;;;18.92;55.43;99192.84;4970733;28;102188;-42
2022/10/19 10:23:35;;;;;;;;;5.00;5.00;;;;;18.93;55.52;99193.69;4970307;28;102606;-43
2022/10/19 10:26:02;;;;;;;;;4.67;4.67;;;;;18.92;55.39;99183.78;4984092;28;104068;-43
2022/10/19 10:28:29;;;;;;;;;5.67;5.00;;;;;18.92;55.54;99184.63;5000925;28;102077;-43
2022/10/19 10:31:04;;;;;;;;;4.00;4.00;;;;;18.92;55.35;99175.56;4977099;28;110918;-43
2022/10/19 10:33:34;;;;;;;;;5.00;5.00;;;;;18.91;55.75;99176.66;4976957;27;102509;-43
2022/10/19 10:36:23;;;;;;;;;4.00;4.00;;;;;18.91;55.56;99176.66;4955913;28;107880;-43
2022/10/19 10:38:51;;;;;;;;;5.00;5.00;;;;;18.92;55.38;99178.31;4973331;28;102171;-43
2022/10/19 10:41:22;;;;;;;;;5.00;4.67;;;;;18.91;55.72;99188.44;4972986;28;102597;-43
2022/10/19 10:43:56;;;;;;;;;6.00;5.33;;;;;18.91;55.62;99187.63;4975640;28;102368;-43
2022/10/19 10:46:33;;;;;;;;;4.00;4.00;;;;;18.91;54.95;99184.88;4973672;28;104186;-43
2022/10/19 10:49:02;;;;;;;;;6.00;5.00;;;;;18.90;55.37;99192.28;4979470;28;102108;-42
2022/10/19 10:51:37;;;;;;;;;4.00;4.00;;;;;18.90;55.48;99185.94;4983004;28;102479;-42
2022/10/19 10:54:21;;;;;;;;;5.67;5.33;;;;;18.91;55.29;99188.44;4980218;28;102222;-43
2022/10/19 10:57:14;;;;;;;;;6.00;5.00;;;;;18.91;55.56;99184.88;4999159;27;108614;-42
2022/10/19 11:00:10;;;;;;;;;5.33;5.33;;;;;18.90;55.51;99186.78;4984648;28;109986;-42
2022/10/19 11:02:54;;;;;;;;;5.67;5.00;;;;;18.89;55.52;99192.50;4960643;28;102457;-42
2022/10/19 11:05:27;;;;;;;;;5.67;5.33;;;;;18.89;55.29;99196.06;4990904;28;103957;-42
2022/10/19 11:08:05;;;;;;;;;6.33;5.00;;;;;18.89;55.34;99195.25;4977215;28;104948;-42
2022/10/19 11:11:16;;;;;;;;;4.33;4.00;;;;;18.88;55.38;99188.91;4989265;28;102600;-42
2022/10/19 11:14:11;;;;;;;;;5.00;4.00;;;;;18.88;55.51;99188.91;4967049;28;102133;-42
2022/10/19 11:16:40;;;;;;;;;5.00;4.00;;;;;18.88;55.49;99190.81;4973599;28;102426;-42
2022/10/19 11:19:13;;;;;;;;;4.33;4.33;;;;;18.88;55.39;99193.56;4977368;28;109114;-43
2022/10/19 11:22:13;;;;;;;;;4.33;4.00;;;;;18.88;55.53;99188.09;4979125;28;102688;-43
2022/10/19 11:24:55;;;;;;;;;5.00;5.00;;;;;18.88;55.43;99185.34;4986451;28;102443;-42
2022/10/19 11:27:43;;;;;;;;;4.00;4.00;;;;;18.86;55.54;99177.38;4978530;28;103105;-43
2022/10/19 11:30:14;;;;;;;;;5.00;5.00;;;;;18.88;55.79;99177.13;4987700;28;108891;-43
2022/10/19 11:33:16;;;;;;;;;5.00;4.33;;;;;18.88;55.50;99168.91;4985118;28;105793;-43
2022/10/19 11:35:53;;;;;;;;;3.67;3.67;;;;;18.88;55.46;99171.63;4967535;28;102407;-43
2022/10/19 11:38:29;;;;;;;;;5.00;5.00;;;;;18.87;55.52;99168.06;4966462;28;102190;-43
2022/10/19 11:41:17;;;;;;;;;4.00;4.00;;;;;18.88;55.64;99160.69;4973532;28;104538;-43
2022/10/19 11:43:54;;;;;;;;;5.33;5.00;;;;;18.88;55.39;99161.53;4980953;28;102555;-43